Time;durP1;ratioP1;P1;durP2;ratioP2;P2;SDS_P1;SDS_P2;PMS_P1;PMS_P2;Temp;Humidity;BMP_temperature;BMP_pressure;BME280_temperature;BME280_humidity;BME280_pressure;Samples;Min_cycle;Max_cycle;Signal;HPM_P1;HPM_P2
2022/09/02 00:00:59;;;;;;;0.73;0.40;;;;;;;18.20;43.10;99881.88;4262186;33;34269;-71
2022/09/02 00:03:46;;;;;;;1.33;0.40;;;;;;;18.45;42.89;99878.16;4263048;33;34393;-71
2022/09/02 00:06:33;;;;;;;2.58;0.57;;;;;;;18.68;42.89;99881.09;4262523;33;34800;-72
2022/09/02 00:09:22;;;;;;;1.52;0.40;;;;;;;18.87;40.90;99875.62;4262730;33;35482;-72
2022/09/02 00:12:09;;;;;;;3.47;0.65;;;;;;;19.30;42.39;99877.38;4273487;33;32911;-71
2022/09/02 00:14:56;;;;;;;2.30;0.70;;;;;;;18.81;42.10;99866.78;4262757;33;35493;-71
2022/09/02 00:17:42;;;;;;;2.20;0.80;;;;;;;19.18;40.82;99868.38;4273558;33;36480;-72
2022/09/02 00:20:29;;;;;;;1.48;0.52;;;;;;;19.03;40.33;99861.69;4273773;33;33970;-71
2022/09/02 00:23:16;;;;;;;1.73;0.60;;;;;;;19.14;39.58;99859.97;4262390;33;34119;-71
2022/09/02 00:26:03;;;;;;;2.60;0.50;;;;;;;18.84;40.84;99862.44;4273609;33;35594;-71
2022/09/02 00:28:49;;;;;;;3.72;0.68;;;;;;;18.84;41.96;99862.44;4262146;33;35016;-71
2022/09/02 00:31:44;;;;;;;2.17;0.50;;;;;;;18.79;41.32;99857.19;4263226;33;34731;-71
2022/09/02 00:34:30;;;;;;;2.03;0.60;;;;;;;19.06;41.03;99853.44;4262795;33;34212;-71
2022/09/02 00:37:17;;;;;;;1.80;0.50;;;;;;;18.88;41.87;99855.81;4262473;33;34605;-71
2022/09/02 00:40:05;;;;;;;1.70;0.60;;;;;;;18.64;42.05;99851.28;4269817;33;34981;-71
2022/09/02 00:42:51;;;;;;;1.15;0.50;;;;;;;19.20;39.38;99844.62;4261888;33;35544;-71
2022/09/02 00:45:38;;;;;;;4.60;0.80;;;;;;;18.77;40.04;99846.44;4261997;33;35006;-71
2022/09/02 00:48:26;;;;;;;1.77;0.50;;;;;;;18.72;42.68;99846.69;4263350;33;35545;-71
2022/09/02 00:51:13;;;;;;;1.50;0.40;;;;;;;19.61;38.76;99852.59;4273332;33;35070;-71
2022/09/02 00:54:00;;;;;;;1.92;0.57;;;;;;;19.08;39.04;99842.78;4252685;33;34897;-71
2022/09/02 00:56:46;;;;;;;0.95;0.45;;;;;;;18.74;40.12;99844.38;4262696;33;35366;-71
2022/09/02 00:59:45;;;;;;;1.58;0.68;;;;;;;19.09;40.64;99843.56;4262646;33;34588;-71
2022/09/02 01:02:33;;;;;;;1.27;0.50;;;;;;;18.97;41.29;99852.03;4261563;33;35139;-71
2022/09/02 01:05:22;;;;;;;2.08;0.62;;;;;;;18.18;41.37;99833.47;4273095;33;34655;-71
2022/09/02 01:08:08;;;;;;;2.37;0.60;;;;;;;18.62;40.37;99841.69;4262241;33;34145;-71
2022/09/02 01:10:55;;;;;;;1.10;0.40;;;;;;;17.86;40.77;99839.00;4262703;33;34620;-71
2022/09/02 01:13:42;;;;;;;0.75;0.60;;;;;;;18.58;40.67;99835.25;4273442;33;35960;-71
2022/09/02 01:16:37;;;;;;;0.95;0.40;;;;;;;18.93;39.62;99840.87;4262853;33;35439;-71
2022/09/02 01:19:37;;;;;;;4.97;0.68;;;;;;;18.35;40.15;99838.66;4262304;33;34963;-72
2022/09/02 01:22:29;;;;;;;1.48;0.40;;;;;;;19.01;39.25;99842.63;4262338;33;34709;-71
2022/09/02 01:25:22;;;;;;;1.50;0.43;;;;;;;19.26;37.85;99836.81;4271139;33;35727;-71
2022/09/02 01:28:11;;;;;;;1.40;0.43;;;;;;;18.29;39.80;99842.88;4271600;33;35637;-71
2022/09/02 01:30:57;;;;;;;4.10;0.50;;;;;;;18.31;39.99;99837.78;4252197;33;34176;-71
2022/09/02 01:33:44;;;;;;;2.17;0.40;;;;;;;18.61;39.79;99834.53;4272612;33;34646;-71
2022/09/02 01:36:30;;;;;;;2.12;0.50;;;;;;;18.74;40.21;99840.81;4252732;33;35009;-71
2022/09/02 01:39:18;;;;;;;2.72;0.50;;;;;;;19.28;38.56;99838.03;4272695;33;35603;-70
2022/09/02 01:42:05;;;;;;;1.42;0.30;;;;;;;18.75;39.06;99840.44;4269489;33;35028;-71
2022/09/02 01:44:51;;;;;;;2.92;0.60;;;;;;;19.08;38.79;99828.09;4273266;33;33345;-71
2022/09/02 01:47:38;;;;;;;2.25;0.50;;;;;;;18.77;38.44;99837.31;4263869;33;34997;-72
2022/09/02 01:50:25;;;;;;;0.73;0.40;;;;;;;18.98;39.29;99831.44;4274520;33;34482;-71
2022/09/02 01:53:11;;;;;;;2.08;0.57;;;;;;;18.69;39.16;99832.72;4275034;33;35352;-71
2022/09/02 01:55:57;;;;;;;1.55;0.40;;;;;;;19.37;38.47;99825.91;4274532;33;35524;-71
2022/09/02 01:58:46;;;;;;;3.03;0.50;;;;;;;19.30;38.31;99826.59;4274270;33;34917;-71
2022/09/02 02:01:34;;;;;;;0.82;0.40;;;;;;;18.76;39.28;99828.19;4263842;33;34709;-71
2022/09/02 02:04:23;;;;;;;1.45;0.55;;;;;;;19.30;38.35;99827.38;4273740;33;34216;-71
2022/09/02 02:07:13;;;;;;;2.15;0.60;;;;;;;17.98;40.63;99825.03;4263791;33;35596;-71
2022/09/02 02:09:59;;;;;;;1.75;0.50;;;;;;;18.16;40.39;99830.28;4252575;33;35063;-71
2022/09/02 02:12:46;;;;;;;2.83;0.45;;;;;;;18.96;39.34;99823.47;4274658;33;34617;-71
2022/09/02 02:15:32;;;;;;;2.12;0.57;;;;;;;18.34;39.68;99823.19;4273327;33;33845;-71
2022/09/02 02:18:17;;;;;;;0.68;0.30;;;;;;;18.29;39.94;99823.47;4274380;33;34756;-71
2022/09/02 02:21:04;;;;;;;1.17;0.50;;;;;;;18.10;41.06;99826.13;4263371;33;35061;-71
2022/09/02 02:23:50;;;;;;;1.02;0.47;;;;;;;17.86;40.78;99819.59;4263778;33;34693;-71
2022/09/02 02:26:37;;;;;;;2.12;0.40;;;;;;;18.47;40.21;99823.09;4274326;33;35034;-71
2022/09/02 02:29:23;;;;;;;2.35;0.70;;;;;;;17.62;41.16;99826.06;4274729;33;34726;-70
2022/09/02 02:32:10;;;;;;;1.75;0.70;;;;;;;18.37;40.46;99824.44;4273532;33;35204;-70
2022/09/02 02:34:58;;;;;;;0.93;0.40;;;;;;;17.36;41.58;99820.13;4264006;33;34605;-71
2022/09/02 02:37:47;;;;;;;2.47;0.60;;;;;;;18.45;40.36;99825.44;4274189;33;34321;-71
2022/09/02 02:40:34;;;;;;;2.62;0.52;;;;;;;18.04;40.74;99822.03;4263486;33;34347;-70
2022/09/02 02:43:23;;;;;;;3.35;0.45;;;;;;;18.24;41.80;99823.72;4273682;33;34958;-71
2022/09/02 02:46:10;;;;;;;0.77;0.32;;;;;;;18.31;41.24;99820.34;4253554;33;35777;-70
2022/09/02 02:49:00;;;;;;;1.73;0.52;;;;;;;18.24;41.03;99820.94;4263570;33;34267;-71
2022/09/02 02:51:47;;;;;;;1.02;0.43;;;;;;;18.43;40.79;99817.47;4253004;33;34644;-71
2022/09/02 02:54:33;;;;;;;2.25;0.40;;;;;;;18.70;40.30;99824.06;4263102;33;35102;-70
2022/09/02 02:57:21;;;;;;;2.87;0.52;;;;;;;18.77;40.71;99821.47;4263379;33;35561;-70
2022/09/02 03:00:19;;;;;;;1.58;0.43;;;;;;;17.32;43.16;99820.03;4263509;33;34095;-71
2022/09/02 03:03:08;;;;;;;0.70;0.40;;;;;;;18.00;42.32;99832.22;4272355;33;34671;-71
2022/09/02 03:05:55;;;;;;;2.75;0.65;;;;;;;18.21;41.86;99821.66;4274345;33;34946;-71
2022/09/02 03:08:42;;;;;;;0.70;0.40;;;;;;;17.77;42.04;99818.91;4273768;33;35542;-71
2022/09/02 03:11:29;;;;;;;3.75;0.60;;;;;;;18.51;41.71;99815.66;4260825;33;35079;-71
2022/09/02 03:14:18;;;;;;;1.40;0.60;;;;;;;17.91;40.82;99813.78;4273280;33;35590;-71
2022/09/02 03:17:05;;;;;;;1.45;0.60;;;;;;;18.60;40.48;99810.72;4263112;33;34950;-71
2022/09/02 03:19:53;;;;;;;1.10;0.50;;;;;;;18.07;40.21;99810.22;4273748;33;35230;-71
2022/09/02 03:22:39;;;;;;;1.15;0.60;;;;;;;18.63;39.50;99810.00;4273089;33;34227;-71
2022/09/02 03:25:28;;;;;;;2.67;0.50;;;;;;;18.76;40.67;99814.31;4262502;33;35638;-71
2022/09/02 03:28:21;;;;;;;1.00;0.32;;;;;;;18.51;42.01;99815.66;4263337;33;35018;-71
2022/09/02 03:31:14;;;;;;;2.17;0.50;;;;;;;18.20;41.76;99811.75;4273428;33;34554;-71
2022/09/02 03:34:00;;;;;;;1.08;0.40;;;;;;;18.33;40.60;99807.72;4263931;33;32438;-71
2022/09/02 03:36:47;;;;;;;1.23;0.40;;;;;;;18.82;38.92;99812.84;4271590;33;35684;-73
2022/09/02 03:39:35;;;;;;;1.85;0.50;;;;;;;17.86;41.95;99807.69;4259245;33;36048;-72
2022/09/02 03:42:22;;;;;;;1.52;0.47;;;;;;;18.06;41.91;99814.16;4260269;33;34849;-72
2022/09/02 03:45:09;;;;;;;0.77;0.40;;;;;;;18.67;40.52;99808.13;4271661;33;35263;-72
2022/09/02 03:47:57;;;;;;;2.10;0.50;;;;;;;18.30;42.23;99818.72;4258394;33;34688;-73
2022/09/02 03:50:46;;;;;;;1.45;0.40;;;;;;;18.75;42.27;99809.91;4260746;33;34324;-72
2022/09/02 03:53:33;;;;;;;3.95;0.60;;;;;;;18.75;42.77;99800.78;4269896;33;34386;-72
2022/09/02 03:56:21;;;;;;;2.03;0.73;;;;;;;18.56;42.78;99809.84;4259968;33;34934;-72
2022/09/02 03:59:07;;;;;;;1.83;0.60;;;;;;;17.85;46.16;99809.66;4250933;33;34610;-72
2022/09/02 04:01:54;;;;;;;2.33;0.50;;;;;;;18.49;43.40;99812.44;4268358;33;35962;-72
2022/09/02 04:04:41;;;;;;;2.47;0.60;;;;;;;18.14;44.02;99808.44;4270942;33;35628;-73
2022/09/02 04:07:27;;;;;;;1.55;0.80;;;;;;;18.30;44.45;99813.16;4270514;33;34352;-72
2022/09/02 04:10:14;;;;;;;1.37;0.55;;;;;;;16.47;49.76;99821.78;4271540;33;35424;-72
2022/09/02 04:13:00;;;;;;;1.52;0.70;;;;;;;17.69;42.63;99817.91;4259551;33;35872;-72
2022/09/02 04:15:48;;;;;;;0.93;0.55;;;;;;;17.88;43.69;99813.69;4270453;33;35566;-72
2022/09/02 04:18:35;;;;;;;2.83;0.52;;;;;;;18.16;43.81;99813.62;4270761;33;33948;-72
2022/09/02 04:21:24;;;;;;;2.22;0.52;;;;;;;17.08;47.35;99823.72;4270024;33;34655;-73
2022/09/02 04:24:10;;;;;;;1.00;0.60;;;;;;;17.46;45.93;99816.88;4269478;33;35032;-72
2022/09/02 04:26:57;;;;;;;1.33;0.45;;;;;;;17.98;45.13;99821.47;4260150;33;34581;-72
2022/09/02 04:29:50;;;;;;;1.48;0.40;;;;;;;17.38;46.15;99818.63;4251350;33;35068;-72
2022/09/02 04:32:37;;;;;;;1.50;0.60;;;;;;;18.05;44.30;99818.91;4271185;33;34671;-72
2022/09/02 04:35:26;;;;;;;1.65;0.52;;;;;;;17.31;45.39;99823.97;4250563;33;34966;-73
2022/09/02 04:38:13;;;;;;;1.65;0.30;;;;;;;17.67;43.31;99819.44;4271938;33;33989;-72
2022/09/02 04:41:00;;;;;;;8.93;1.27;;;;;;;17.63;43.66;99819.34;4271550;33;34424;-72
2022/09/02 04:43:46;;;;;;;3.92;0.50;;;;;;;17.88;43.99;99825.59;4271408;33;34655;-72
2022/09/02 04:46:32;;;;;;;2.70;0.57;;;;;;;18.07;43.71;99824.06;4258449;33;35972;-72
2022/09/02 04:49:20;;;;;;;4.35;0.80;;;;;;;17.14;45.89;99841.69;4271562;33;35561;-72
2022/09/02 04:52:09;;;;;;;2.10;0.43;;;;;;;16.11;50.85;99831.69;4271325;33;34164;-72
2022/09/02 04:54:56;;;;;;;2.40;0.62;;;;;;;16.75;46.83;99832.16;4271107;33;34558;-72
2022/09/02 04:57:42;;;;;;;3.28;0.50;;;;;;;17.19;48.21;99832.31;4270466;33;35030;-72
2022/09/02 05:00:29;;;;;;;2.45;0.70;;;;;;;17.66;46.80;99828.91;4271689;33;34572;-72
2022/09/02 05:03:15;;;;;;;3.22;0.60;;;;;;;17.61;47.52;99827.19;4268671;33;34095;-72
2022/09/02 05:06:06;;;;;;;3.10;0.50;;;;;;;16.76;49.49;99839.28;4270842;33;35134;-72
2022/09/02 05:08:58;;;;;;;2.05;0.60;;;;;;;18.11;47.54;99822.22;4260100;33;34896;-72
2022/09/02 05:11:46;;;;;;;3.25;0.60;;;;;;;17.94;46.07;99835.25;4259915;33;35298;-72
2022/09/02 05:14:33;;;;;;;2.35;0.50;;;;;;;17.25;48.88;99837.28;4260411;33;33752;-72
2022/09/02 05:17:20;;;;;;;4.57;0.70;;;;;;;17.37;48.26;99833.66;4271270;33;34103;-72
2022/09/02 05:20:08;;;;;;;2.17;0.60;;;;;;;17.97;48.29;99840.09;4260147;33;34987;-72
2022/09/02 05:22:55;;;;;;;2.97;0.75;;;;;;;18.09;44.73;99841.97;4259419;33;34290;-72
2022/09/02 05:25:41;;;;;;;3.17;0.55;;;;;;;18.06;46.94;99834.37;4270827;33;34224;-72
2022/09/02 05:28:28;;;;;;;1.08;0.50;;;;;;;16.79;49.42;99835.84;4271262;33;35264;-72
2022/09/02 05:31:16;;;;;;;1.15;0.50;;;;;;;17.22;46.44;99842.72;4270577;33;35650;-72
2022/09/02 05:34:03;;;;;;;1.52;0.60;;;;;;;17.86;44.72;99839.00;4270471;33;34918;-72
2022/09/02 05:36:50;;;;;;;4.55;0.70;;;;;;;18.20;45.21;99842.25;4271173;33;34273;-72
2022/09/02 05:39:36;;;;;;;0.82;0.50;;;;;;;18.22;46.02;99839.13;4269655;33;35584;-72
2022/09/02 05:42:23;;;;;;;5.10;0.62;;;;;;;17.60;45.92;99842.22;4270896;33;35001;-72
2022/09/02 05:45:10;;;;;;;2.78;1.60;;;;;;;17.45;44.16;99829.12;4270227;33;35389;-72
2022/09/02 05:49:04;;;;;;;4.00;1.10;;;;;;;17.15;45.84;99843.28;4270957;33;34230;-72
2022/09/02 05:51:08;;;;;;;3.80;0.82;;;;;;;18.29;44.60;99840.09;4270540;33;34308;-72
2022/09/02 05:53:56;;;;;;;2.87;1.08;;;;;;;17.86;43.75;99833.44;4270337;33;34716;-72
2022/09/02 05:56:45;;;;;;;1.23;0.60;;;;;;;18.32;42.77;99831.06;4269524;33;34287;-72
2022/09/02 05:59:37;;;;;;;1.45;0.65;;;;;;;17.41;43.84;99829.00;4269323;33;34134;-72
2022/09/02 06:02:24;;;;;;;4.65;1.27;;;;;;;18.14;43.32;99833.37;4270716;33;34403;-73
2022/09/02 06:05:11;;;;;;;1.48;0.50;;;;;;;18.08;43.96;99839.56;4269836;33;34896;-72
2022/09/02 06:07:58;;;;;;;2.30;0.60;;;;;;;17.77;44.49;99836.34;4270898;33;34535;-72
2022/09/02 06:10:45;;;;;;;3.00;0.73;;;;;;;18.20;43.43;99836.72;4268135;33;34188;-72
2022/09/02 06:13:34;;;;;;;2.45;0.68;;;;;;;18.66;42.92;99831.47;4269938;33;35662;-72
2022/09/02 06:16:22;;;;;;;3.40;0.50;;;;;;;18.23;42.54;99840.72;4270040;33;34632;-72
2022/09/02 06:19:09;;;;;;;2.80;0.62;;;;;;;18.02;43.37;99841.78;4270515;33;34230;-72
2022/09/02 06:21:58;;;;;;;1.62;0.50;;;;;;;18.10;43.99;99848.31;4270439;33;34086;-72
2022/09/02 06:24:44;;;;;;;4.97;2.10;;;;;;;18.88;42.93;99849.47;4256956;33;34261;-71
2022/09/02 06:27:32;;;;;;;1.45;0.70;;;;;;;18.48;42.12;99842.16;4248530;33;36063;-73
2022/09/02 06:30:19;;;;;;;4.22;0.65;;;;;;;18.60;43.69;99850.38;4269784;33;34839;-74
2022/09/02 06:33:05;;;;;;;6.25;0.80;;;;;;;18.76;43.20;99853.16;4271623;33;34460;-72
2022/09/02 08:07:23;;;;;;;2.30;0.80;;;;;;;19.95;40.99;99848.13;4632025;28;20140;-75
2022/09/02 08:10:11;;;;;;;4.72;1.20;;;;;;;20.25;40.36;99847.47;4293235;33;34169;-75
2022/09/02 08:13:01;;;;;;;2.92;1.20;;;;;;;20.33;40.55;99857.53;4274942;33;34880;-75
2022/09/02 08:15:48;;;;;;;3.00;0.85;;;;;;;20.71;40.67;99862.16;4302329;33;34714;-75
2022/09/02 08:18:35;;;;;;;2.35;1.00;;;;;;;21.11;39.69;99864.34;4291957;33;33729;-75
2022/09/02 08:21:23;;;;;;;2.00;0.90;;;;;;;20.86;39.81;99855.66;4286786;33;35422;-75
2022/09/02 08:24:09;;;;;;;2.92;0.85;;;;;;;20.87;39.76;99851.69;4299715;33;36062;-75
2022/09/02 08:26:56;;;;;;;2.22;0.90;;;;;;;20.83;40.47;99850.00;4307395;33;34660;-75
2022/09/02 08:29:42;;;;;;;3.90;1.20;;;;;;;21.60;40.56;99845.09;4295958;33;33060;-75
2022/09/02 08:32:31;;;;;;;2.55;0.95;;;;;;;21.92;38.35;99843.47;4308016;33;35568;-75
2022/09/02 08:35:18;;;;;;;4.60;0.90;;;;;;;21.30;39.58;99843.91;4306790;33;34833;-75
2022/09/02 08:38:04;;;;;;;1.92;1.20;;;;;;;20.49;42.01;99847.09;4294348;33;34456;-75
2022/09/02 08:40:51;;;;;;;2.65;0.77;;;;;;;20.50;40.76;99836.75;4309560;33;35206;-75
2022/09/02 08:43:42;;;;;;;3.78;1.20;;;;;;;20.99;40.82;99835.94;4290628;33;149150;-75
2022/09/02 08:46:31;;;;;;;2.62;0.90;;;;;;;20.32;41.45;99837.28;4293177;33;34786;-74
2022/09/02 08:49:45;;;;;;;1.35;0.80;;;;;;;20.03;41.21;99835.94;4289198;33;34411;-75
2022/09/02 08:53:09;;;;;;;3.60;1.02;;;;;;;20.60;41.56;99839.72;4285646;33;34190;-74
2022/09/02 08:55:57;;;;;;;4.87;1.10;;;;;;;20.82;41.15;99837.28;4300565;33;35230;-75
2022/09/02 08:58:48;;;;;;;5.40;0.90;;;;;;;21.73;40.90;99838.88;4291641;33;35865;-75
2022/09/02 09:01:41;;;;;;;2.92;1.12;;;;;;;21.91;42.01;99841.84;4280551;33;34533;-73
2022/09/02 09:04:43;;;;;;;4.70;1.20;;;;;;;21.97;38.35;99843.13;4280714;33;34118;-75
2022/09/02 09:07:44;;;;;;;4.62;1.10;;;;;;;22.44;38.68;99840.78;4291169;33;35207;-75
2022/09/02 09:10:46;;;;;;;4.43;1.20;;;;;;;22.37;38.78;99835.13;4302233;33;35271;-75
2022/09/02 09:14:09;;;;;;;1.83;0.90;;;;;;;22.46;37.76;99838.41;4286971;33;34735;-75
2022/09/02 09:17:30;;;;;;;3.10;1.00;;;;;;;21.76;39.46;99832.53;4304626;33;34167;-75
2022/09/02 09:20:19;;;;;;;4.75;1.37;;;;;;;22.26;39.44;99826.69;4288780;33;34681;-75
2022/09/02 09:23:29;;;;;;;6.62;1.48;;;;;;;22.27;39.65;99824.69;4293742;33;34701;-75
2022/09/02 09:26:26;;;;;;;3.22;1.30;;;;;;;22.34;39.48;99824.72;4281382;33;35644;-75
2022/09/02 09:29:12;;;;;;;3.80;1.20;;;;;;;22.05;37.55;99830.03;4300992;33;34164;-75
2022/09/02 09:31:59;;;;;;;2.80;1.30;;;;;;;21.93;38.99;99833.91;4304705;33;34709;-75
2022/09/02 09:35:01;;;;;;;3.78;1.10;;;;;;;22.83;36.66;99829.09;4278370;33;35091;-76
2022/09/02 09:37:52;;;;;;;2.33;1.08;;;;;;;22.05;39.73;99823.66;4304431;33;34489;-75
2022/09/02 09:40:39;;;;;;;2.40;1.17;;;;;;;22.55;37.83;99819.31;4304601;33;35203;-75
2022/09/02 09:43:28;;;;;;;2.47;1.30;;;;;;;23.02;36.17;99814.84;4306464;33;34496;-75
2022/09/02 09:46:21;;;;;;;3.72;1.45;;;;;;;23.96;36.14;99818.81;4291140;33;34478;-75
2022/09/02 09:49:07;;;;;;;3.30;1.35;;;;;;;24.48;34.23;99807.25;4302862;33;34319;-76
2022/09/02 09:51:56;;;;;;;2.22;1.20;;;;;;;24.21;33.90;99804.84;4308145;33;35026;-76
2022/09/02 09:54:43;;;;;;;4.70;1.33;;;;;;;23.44;35.46;99805.06;4303829;33;34665;-76
2022/09/02 09:57:32;;;;;;;4.40;1.27;;;;;;;23.90;34.41;99798.81;4314812;33;34985;-78
2022/09/02 10:00:31;;;;;;;3.57;1.27;;;;;;;24.49;32.92;99803.28;4307098;33;34679;-77
2022/09/02 10:03:22;;;;;;;4.80;1.55;;;;;;;22.65;36.42;99801.03;4297418;33;34134;-78
2022/09/02 10:06:35;;;;;;;3.70;1.23;;;;;;;22.52;37.33;99794.19;4297168;33;34705;-77
2022/09/02 10:09:30;;;;;;;3.72;1.25;;;;;;;22.38;38.31;99798.47;4305648;33;35078;-77
2022/09/02 10:12:31;;;;;;;3.97;1.08;;;;;;;22.20;38.26;99803.91;4280605;33;34683;-77
2022/09/02 10:15:41;;;;;;;4.07;1.10;;;;;;;23.52;37.07;99803.09;4291386;33;34381;-78
2022/09/02 10:18:44;;;;;;;3.75;1.33;;;;;;;23.12;37.04;99802.16;4291355;33;34792;-77
2022/09/02 10:21:43;;;;;;;2.20;1.25;;;;;;;24.15;36.18;99804.44;4295007;33;34685;-77
2022/09/02 10:25:09;;;;;;;3.15;1.40;;;;;;;21.83;39.54;99814.25;4288448;33;34669;-77
2022/09/02 10:28:06;;;;;;;5.20;1.30;;;;;;;22.22;39.41;99804.31;4320184;33;34996;-77
2022/09/02 10:31:15;;;;;;;4.70;1.30;;;;;;;23.03;39.07;99810.09;4290147;33;35703;-77
2022/09/02 10:34:02;;;;;;;6.45;1.73;;;;;;;22.17;39.36;99804.69;4308751;33;35935;-78
2022/09/02 10:37:10;;;;;;;3.90;1.08;;;;;;;21.35;39.93;99809.34;4303853;33;35294;-77
2022/09/02 10:40:16;;;;;;;4.53;1.30;;;;;;;22.61;40.95;99805.81;4308788;33;34352;-78
2022/09/02 10:43:07;;;;;;;2.37;1.17;;;;;;;23.35;38.74;99811.03;4309195;33;35629;-78
2022/09/02 10:45:57;;;;;;;2.03;0.90;;;;;;;23.91;36.07;99808.03;4284680;33;35064;-79
2022/09/02 10:49:02;;;;;;;4.62;1.25;;;;;;;23.94;35.62;99801.63;4295817;33;35238;-79
2022/09/02 10:52:00;;;;;;;2.92;1.20;;;;;;;23.34;37.21;99803.84;4285072;33;34905;-78
2022/09/02 10:54:52;;;;;;;2.95;1.20;;;;;;;23.31;36.67;99799.03;4286161;33;34367;-79
2022/09/02 10:57:50;;;;;;;3.85;1.23;;;;;;;23.93;36.85;99800.81;4296514;33;34709;-79
2022/09/02 11:00:39;;;;;;;2.67;1.20;;;;;;;23.99;36.05;99802.03;4300908;33;34352;-79
2022/09/02 11:04:01;;;;;;;5.95;1.90;;;;;;;23.75;37.39;99806.38;4290819;33;34785;-79
2022/09/02 11:06:48;;;;;;;6.87;1.02;;;;;;;23.46;37.74;99810.28;4273492;33;34652;-78
2022/09/02 11:09:53;;;;;;;3.58;1.25;;;;;;;22.44;36.76;99810.06;4304733;33;33948;-79
2022/09/02 11:12:40;;;;;;;;;;;;;;;23.07;37.90;99805.31;4283111;33;34244;-79
2022/09/02 11:15:44;;;;;;;3.30;1.12;;;;;;;23.90;37.47;99803.59;4300623;33;35076;-79
2022/09/02 11:18:43;;;;;;;2.62;1.25;;;;;;;23.68;37.05;99805.53;4280404;33;35606;-79
2022/09/02 11:21:41;;;;;;;1.67;0.98;;;;;;;24.09;38.04;99797.66;4286824;33;34759;-79
2022/09/02 11:24:38;;;;;;;2.40;1.25;;;;;;;24.25;35.51;99800.06;4291362;33;35093;-78
2022/09/02 11:28:19;;;;;;;1.90;1.10;;;;;;;23.97;35.08;99790.44;4283793;33;35018;-78
2022/09/02 11:31:18;;;;;;;2.50;1.30;;;;;;;23.99;34.51;99784.44;4274335;33;34189;-78
2022/09/02 11:34:39;;;;;;;3.22;1.20;;;;;;;24.67;33.68;99778.81;4287313;33;35690;-78
2022/09/02 11:37:33;;;;;;;3.25;1.70;;;;;;;24.90;34.42;99778.38;4301679;33;35372;-78
2022/09/02 11:40:30;;;;;;;4.30;1.37;;;;;;;24.00;35.92;99777.66;4294327;33;33805;-78
2022/09/02 11:43:44;;;;;;;3.55;1.50;;;;;;;26.10;33.69;99785.81;4290646;33;35626;-79
2022/09/02 11:46:38;;;;;;;4.57;1.33;;;;;;;25.82;31.56;99776.38;4302629;33;35051;-77
2022/09/02 11:49:32;;;;;;;4.57;1.40;;;;;;;25.23;34.31;99773.47;4298077;33;34741;-78
2022/09/02 11:52:36;;;;;;;2.72;1.48;;;;;;;26.09;30.85;99767.38;4293925;33;34246;-79
2022/09/02 11:55:33;;;;;;;3.50;1.80;;;;;;;26.42;31.02;99754.66;4288167;33;34526;-78
2022/09/02 11:58:37;;;;;;;4.85;1.50;;;;;;;24.60;32.50;99759.25;4289426;33;35040;-78
2022/09/02 12:01:37;;;;;;;3.28;1.60;;;;;;;26.12;33.07;99766.53;4284357;33;34485;-78
2022/09/02 12:04:29;;;;;;;5.07;1.58;;;;;;;25.90;32.03;99766.72;4278277;33;34293;-79
2022/09/02 12:07:48;;;;;;;6.03;1.77;;;;;;;27.02;30.89;99763.66;4286669;33;34538;-79
2022/09/02 12:10:45;;;;;;;3.28;1.73;;;;;;;27.16;30.41;99749.47;4287151;33;35868;-79
2022/09/02 12:13:36;;;;;;;5.43;1.55;;;;;;;23.52;34.87;99758.34;4309897;33;35490;-78
2022/09/02 12:16:29;;;;;;;2.60;1.25;;;;;;;24.81;33.95;99763.97;4295415;33;34750;-79
2022/09/02 12:19:23;;;;;;;3.62;1.55;;;;;;;24.20;32.83;99759.25;4298629;33;34750;-79
2022/09/02 12:22:16;;;;;;;3.67;1.40;;;;;;;25.81;30.94;99763.53;4281939;33;35964;-78
2022/09/02 12:25:24;;;;;;;4.95;1.67;;;;;;;24.83;32.38;99755.97;4298931;33;34282;-79
2022/09/02 12:28:26;;;;;;;5.47;1.50;;;;;;;24.72;33.89;99756.00;4306002;33;34249;-79
2022/09/02 12:31:15;;;;;;;5.62;1.70;;;;;;;25.08;33.49;99762.31;4286347;33;34750;-79
2022/09/02 12:34:21;;;;;;;3.85;1.40;;;;;;;25.25;32.23;99743.03;4304825;33;34944;-78
2022/09/02 12:37:07;;;;;;;4.22;1.30;;;;;;;25.09;32.22;99754.69;4311462;33;35678;-79
2022/09/02 12:39:57;;;;;;;3.62;1.37;;;;;;;24.94;33.27;99745.53;4295598;33;34232;-79
2022/09/02 12:42:43;;;;;;;3.42;1.23;;;;;;;25.01;32.63;99736.28;4286829;33;34204;-78
2022/09/02 12:45:40;;;;;;;6.32;1.33;;;;;;;24.80;32.46;99739.97;4291612;33;34558;-79
2022/09/02 12:48:39;;;;;;;2.97;1.20;;;;;;;24.98;32.18;99740.69;4289048;33;35226;-79
2022/09/02 12:51:52;;;;;;;2.90;1.45;;;;;;;24.60;34.21;99743.22;4290674;33;34048;-79
2022/09/02 12:54:38;;;;;;;;;;;;;;;24.62;32.30;99740.84;4312729;33;34593;-79
2022/09/02 12:57:38;;;;;;;2.55;1.23;;;;;;;24.59;33.98;99738.84;4296068;33;35773;-78
2022/09/02 13:00:32;;;;;;;5.62;1.85;;;;;;;23.87;34.36;99728.84;4297834;33;35951;-78
2022/09/02 13:03:31;;;;;;;3.62;1.50;;;;;;;23.85;34.49;99725.66;4294444;33;34092;-78
2022/09/02 13:06:39;;;;;;;3.92;1.62;;;;;;;23.97;35.37;99728.06;4298999;33;34726;-78
2022/09/02 13:09:46;;;;;;;3.50;1.30;;;;;;;23.95;34.61;99722.06;4302159;33;35643;-78
2022/09/02 13:13:00;;;;;;;5.03;1.42;;;;;;;24.58;35.07;99731.63;4298734;33;34640;-79
2022/09/02 13:16:06;;;;;;;3.03;1.50;;;;;;;24.78;34.51;99728.38;4295174;33;34252;-79
2022/09/02 13:19:06;;;;;;;3.45;1.70;;;;;;;24.65;33.32;99728.81;4284755;33;34436;-79
2022/09/02 13:22:31;;;;;;;6.20;1.60;;;;;;;24.92;32.80;99719.91;4297738;33;34963;-79
2022/09/02 13:26:06;;;;;;;5.03;1.83;;;;;;;24.05;34.02;99718.50;4298429;33;34697;-78
2022/09/02 13:29:05;;;;;;;5.53;1.92;;;;;;;25.27;33.73;99715.38;4301802;33;33598;-79
2022/09/02 13:32:14;;;;;;;2.95;1.50;;;;;;;25.50;33.17;99723.25;4287557;33;33308;-78
2022/09/02 13:35:04;;;;;;;4.68;1.70;;;;;;;24.44;33.81;99717.66;4308604;33;35937;-80
2022/09/02 13:37:58;;;;;;;5.93;1.67;;;;;;;23.98;33.67;99718.47;4280630;33;35647;-79
2022/09/02 13:40:45;;;;;;;1.58;1.42;;;;;;;24.95;32.91;99715.50;4284826;33;34771;-79
2022/09/02 13:43:31;;;;;;;3.33;1.77;;;;;;;25.91;32.59;99712.16;4306934;33;34234;-78
2022/09/02 13:46:17;;;;;;;3.90;1.50;;;;;;;25.48;32.61;99714.47;4286069;33;33929;-79
2022/09/02 13:49:04;;;;;;;3.15;1.52;;;;;;;26.10;32.49;99707.19;4267998;33;35377;-79
2022/09/02 13:51:53;;;;;;;4.30;1.50;;;;;;;25.53;30.70;99709.22;4277476;33;34087;-79
2022/09/02 13:54:43;;;;;;;5.60;1.75;;;;;;;24.88;32.04;99710.72;4287544;33;34158;-79
2022/09/02 13:57:30;;;;;;;4.05;1.90;;;;;;;25.91;30.81;99703.75;4304798;33;34469;-80
2022/09/02 14:00:25;;;;;;;2.72;1.70;;;;;;;25.82;31.40;99700.59;4303716;33;34580;-80
2022/09/02 14:03:16;;;;;;;4.12;2.15;;;;;;;26.22;30.45;99698.25;4288472;33;33923;-79
2022/09/02 14:06:06;;;;;;;4.57;2.05;;;;;;;25.68;31.76;99707.09;4313355;33;34632;-79
2022/09/02 14:08:58;;;;;;;5.95;1.65;;;;;;;25.94;32.26;99704.94;4291820;33;35005;-80
2022/09/02 14:11:45;;;;;;;4.10;1.77;;;;;;;24.24;33.82;99709.66;4289308;33;34356;-79
2022/09/02 14:14:32;;;;;;;1.95;1.40;;;;;;;23.75;34.51;99707.69;4285119;33;35032;-79
2022/09/02 14:17:23;;;;;;;4.03;1.55;;;;;;;24.21;34.46;99704.84;4296416;33;34244;-79
2022/09/02 14:20:17;;;;;;;9.73;1.60;;;;;;;23.50;35.59;99707.59;4302247;33;34996;-80
2022/09/02 14:23:04;;;;;;;4.62;1.60;;;;;;;24.76;35.18;99708.34;4305378;33;34610;-78
2022/09/02 14:25:54;;;;;;;5.53;1.40;;;;;;;23.42;35.19;99714.38;4289696;33;34667;-77
2022/09/02 14:28:40;;;;;;;4.00;1.62;;;;;;;23.80;35.32;99707.28;4295305;33;34108;-79
2022/09/02 14:31:29;;;;;;;4.35;1.62;;;;;;;24.02;34.44;99700.50;4287728;33;36181;-78
2022/09/02 14:34:35;;;;;;;4.60;1.60;;;;;;;24.83;33.09;99717.53;4286095;33;35483;-79
2022/09/02 14:37:22;;;;;;;2.92;1.58;;;;;;;24.91;33.51;99715.53;4273933;33;34054;-79
2022/09/02 14:40:10;;;;;;;4.30;1.58;;;;;;;24.11;34.39;99711.28;4282909;33;33396;-78
2022/09/02 14:42:58;;;;;;;3.72;1.77;;;;;;;24.59;35.16;99710.00;4282823;33;34479;-78
2022/09/02 14:45:46;;;;;;;4.90;1.50;;;;;;;23.81;36.10;99708.09;4283358;33;34662;-78
2022/09/02 14:48:37;;;;;;;5.50;1.67;;;;;;;24.16;36.01;99710.87;4286432;33;33672;-79
2022/09/02 14:51:30;;;;;;;5.37;1.42;;;;;;;24.01;35.94;99712.06;4285353;33;34525;-79
2022/09/02 14:54:39;;;;;;;5.50;1.60;;;;;;;23.39;36.56;99715.97;4271572;33;34710;-79
2022/09/02 14:57:34;;;;;;;4.30;1.92;;;;;;;22.95;37.86;99724.59;4281585;33;35405;-79
2022/09/02 15:00:21;;;;;;;6.18;1.75;;;;;;;23.43;36.71;99722.38;4277967;33;34053;-79
2022/09/02 15:03:13;;;;;;;7.30;1.85;;;;;;;24.35;35.28;99720.03;4300137;33;34653;-80